createdAt,value
2022-09-09T00:02:05.252Z,47.28
2022-09-09T00:04:34.837Z,47.48
2022-09-09T00:07:22.978Z,47.39
2022-09-09T00:10:21.560Z,47.05
2022-09-09T00:13:09.799Z,47.29
2022-09-09T00:15:44.398Z,47.35
2022-09-09T00:18:30.355Z,47.10
2022-09-09T00:21:14.122Z,47.09
2022-09-09T00:23:52.568Z,47.13
2022-09-09T00:26:43.438Z,47.16
2022-09-09T00:29:22.901Z,46.99
2022-09-09T00:31:50.214Z,46.86
2022-09-09T00:34:23.693Z,47.03
2022-09-09T00:36:53.339Z,46.97
2022-09-09T00:39:45.755Z,46.87
2022-09-09T00:42:20.262Z,46.95
2022-09-09T00:44:59.890Z,47.20
2022-09-09T00:47:46.376Z,47.09
2022-09-09T00:50:36.089Z,47.19
2022-09-09T00:53:28.766Z,46.66
2022-09-09T00:58:33.985Z,46.93
2022-09-09T01:01:12.910Z,47.20
2022-09-09T01:03:49.085Z,47.17
2022-09-09T01:06:30.470Z,47.08
2022-09-09T01:09:16.657Z,46.90
2022-09-09T01:12:01.748Z,46.93
2022-09-09T01:14:36.091Z,47.30
2022-09-09T01:17:09.222Z,47.25
2022-09-09T01:19:53.781Z,47.38
2022-09-09T01:22:32.272Z,47.06
2022-09-09T01:25:26.827Z,47.31
2022-09-09T01:27:58.618Z,47.30
2022-09-09T01:30:28.178Z,47.28
2022-09-09T01:32:59.712Z,47.29
2022-09-09T01:35:42.373Z,47.20
2022-09-09T01:38:09.523Z,47.54
2022-09-09T01:40:36.603Z,47.10
2022-09-09T01:43:03.991Z,47.26
2022-09-09T01:45:31.321Z,47.48
2022-09-09T01:47:58.582Z,47.30
2022-09-09T01:50:25.075Z,47.54
2022-09-09T01:52:56.138Z,47.40
2022-09-09T01:55:32.559Z,47.76
2022-09-09T01:58:38.719Z,47.58
2022-09-09T02:01:26.485Z,47.88
2022-09-09T02:03:56.824Z,47.42
2022-09-09T02:06:38.666Z,47.90
2022-09-09T02:09:12.767Z,47.82
2022-09-09T02:11:39.323Z,47.59
2022-09-09T02:14:17.273Z,47.88
2022-09-09T02:16:49.014Z,47.51
2022-09-09T02:19:24.855Z,47.55
2022-09-09T02:21:52.681Z,47.43
2022-09-09T02:24:19.131Z,47.76
2022-09-09T02:26:48.990Z,47.58
2022-09-09T02:29:21.092Z,47.62
2022-09-09T02:31:50.319Z,47.70
2022-09-09T02:34:21.254Z,47.98
2022-09-09T02:36:49.256Z,47.55
2022-09-09T02:39:15.793Z,47.77
2022-09-09T02:41:43.233Z,47.80
2022-09-09T02:44:20.195Z,48.25
2022-09-09T02:47:17.793Z,48.17
2022-09-09T02:50:15.460Z,48.29
2022-09-09T02:53:00.844Z,48.58
2022-09-09T02:55:38.964Z,48.70
2022-09-09T02:58:10.456Z,47.89
2022-09-09T03:00:37.055Z,48.07
2022-09-09T03:03:07.863Z,48.38
2022-09-09T03:05:34.334Z,48.01
2022-09-09T03:08:00.901Z,48.24
2022-09-09T03:10:27.394Z,48.06
2022-09-09T03:12:53.850Z,48.18
2022-09-09T03:15:20.331Z,47.94
2022-09-09T03:17:47.228Z,47.80
2022-09-09T03:20:13.903Z,47.82
2022-09-09T03:22:41.164Z,47.80
2022-09-09T03:25:08.202Z,48.28
2022-09-09T03:27:34.702Z,48.24
2022-09-09T03:30:01.501Z,48.06
2022-09-09T03:32:27.990Z,48.03
2022-09-09T03:34:54.643Z,48.31
2022-09-09T03:37:21.251Z,48.77
2022-09-09T03:39:47.771Z,48.60
2022-09-09T03:42:15.190Z,48.37
2022-09-09T03:44:42.933Z,48.48
2022-09-09T03:47:09.495Z,48.41
2022-09-09T03:49:36.007Z,48.77
2022-09-09T03:52:02.721Z,49.38
2022-09-09T03:54:29.257Z,48.95
2022-09-09T03:56:55.710Z,48.96
2022-09-09T03:59:22.279Z,49.57
2022-09-09T04:01:49.418Z,49.40
2022-09-09T04:04:15.923Z,49.63
2022-09-09T04:06:42.440Z,49.82
2022-09-09T04:09:08.901Z,49.55
2022-09-09T04:11:35.399Z,49.85
2022-09-09T04:14:01.925Z,49.88
2022-09-09T04:16:28.606Z,49.94
2022-09-09T04:18:55.214Z,49.87
2022-09-09T04:21:22.338Z,49.87
2022-09-09T04:23:48.832Z,50.03
2022-09-09T04:26:15.343Z,50.13
2022-09-09T04:28:41.896Z,50.13
2022-09-09T04:31:10.494Z,49.91
2022-09-09T04:33:40.088Z,49.98
2022-09-09T04:36:08.243Z,50.13
2022-09-09T04:38:34.766Z,50.26
2022-09-09T04:41:01.252Z,50.17
2022-09-09T04:43:27.993Z,49.84
2022-09-09T04:45:55.073Z,50.09
2022-09-09T04:48:22.207Z,49.94
2022-09-09T04:51:10.871Z,51.00
2022-09-09T04:53:38.345Z,49.75
2022-09-09T04:56:07.829Z,50.01
2022-09-09T04:58:34.854Z,50.03
2022-09-09T05:01:06.474Z,50.18
2022-09-09T05:03:33.180Z,50.20
2022-09-09T05:06:11.787Z,50.77
2022-09-09T05:08:39.670Z,50.15
2022-09-09T05:11:19.327Z,50.97
2022-09-09T05:13:46.758Z,50.10
2022-09-09T05:16:14.900Z,50.12
2022-09-09T05:18:43.683Z,50.08
2022-09-09T05:21:11.566Z,50.41
2022-09-09T05:23:39.012Z,50.38
2022-09-09T05:26:06.459Z,50.31
2022-09-09T05:28:35.745Z,50.52
2022-09-09T05:31:05.902Z,50.15
2022-09-09T05:33:34.187Z,50.22
2022-09-09T05:36:03.745Z,50.71
2022-09-09T05:38:31.587Z,50.62
2022-09-09T05:40:58.140Z,50.42
2022-09-09T05:43:25.423Z,50.66
2022-09-09T05:46:09.001Z,51.06
2022-09-09T05:48:40.921Z,50.91
2022-09-09T05:51:12.803Z,50.68
2022-09-09T05:53:39.846Z,50.43
2022-09-09T05:56:08.597Z,50.27
2022-09-09T05:58:35.914Z,50.12
2022-09-09T06:01:14.603Z,51.34
2022-09-09T06:03:43.349Z,50.95
2022-09-09T06:06:18.683Z,51.51
2022-09-09T06:08:46.202Z,50.94
2022-09-09T06:11:18.485Z,51.09
2022-09-09T06:13:44.988Z,50.82
2022-09-09T06:16:18.179Z,50.78
2022-09-09T06:18:44.955Z,50.52
2022-09-09T06:21:33.643Z,51.71
2022-09-09T06:24:01.422Z,51.08
2022-09-09T06:26:33.726Z,51.07
2022-09-09T06:29:01.081Z,50.48
2022-09-09T06:31:31.349Z,50.97
2022-09-09T06:33:59.697Z,50.75
2022-09-09T06:36:28.765Z,51.35
2022-09-09T06:38:55.684Z,51.11
2022-09-09T06:41:27.309Z,51.23
2022-09-09T06:43:53.993Z,51.30
2022-09-09T06:46:22.913Z,50.88
2022-09-09T06:48:50.050Z,50.91
2022-09-09T06:51:18.966Z,50.53
2022-09-09T06:53:47.103Z,51.16
2022-09-09T06:56:29.101Z,51.30
2022-09-09T06:58:57.842Z,51.04
2022-09-09T07:01:30.212Z,50.95
2022-09-09T07:03:59.854Z,50.38
2022-09-09T07:06:29.218Z,50.94
2022-09-09T07:08:58.706Z,50.44
2022-09-09T07:11:30.493Z,50.01
2022-09-09T07:13:58.903Z,49.99
2022-09-09T07:16:26.265Z,50.05
2022-09-09T07:18:53.619Z,50.42
2022-09-09T07:21:21.923Z,49.97
2022-09-09T07:23:48.395Z,49.86
2022-09-09T07:26:17.541Z,50.09
2022-09-09T07:28:44.301Z,50.06
2022-09-09T07:31:32.461Z,50.27
2022-09-09T07:34:00.805Z,49.91
2022-09-09T07:36:33.310Z,50.37
2022-09-09T07:39:03.608Z,50.29
2022-09-09T07:41:36.709Z,50.28
2022-09-09T07:44:11.887Z,50.58
2022-09-09T07:46:40.797Z,50.59
2022-09-09T07:49:08.182Z,50.60
2022-09-09T07:51:37.429Z,49.99
2022-09-09T07:54:07.021Z,50.23
2022-09-09T07:56:34.141Z,50.02
2022-09-09T07:59:02.059Z,50.31
2022-09-09T08:01:31.481Z,50.03
2022-09-09T08:04:03.391Z,50.27
2022-09-09T08:06:36.257Z,50.35
2022-09-09T08:09:03.441Z,50.14
2022-09-09T08:11:34.226Z,50.39
2022-09-09T08:14:04.582Z,50.22
2022-09-09T08:16:34.248Z,50.37
2022-09-09T08:19:00.794Z,50.19
2022-09-09T08:21:29.601Z,50.34
2022-09-09T08:23:58.318Z,50.04
2022-09-09T08:26:35.342Z,50.29
2022-09-09T08:29:04.006Z,49.88
2022-09-09T08:31:36.039Z,50.01
2022-09-09T08:34:04.502Z,49.94
2022-09-09T08:36:34.408Z,50.31
2022-09-09T08:39:01.701Z,50.25
2022-09-09T08:42:03.665Z,50.43
2022-09-09T08:45:05.671Z,50.69
2022-09-09T08:47:56.962Z,50.63
2022-09-09T08:50:39.376Z,50.51
2022-09-09T08:53:08.803Z,50.20
2022-09-09T08:55:49.548Z,50.18
2022-09-09T08:58:21.183Z,50.47
2022-09-09T09:01:07.680Z,50.00
2022-09-09T09:03:49.311Z,50.68
2022-09-09T09:06:37.047Z,50.70
2022-09-09T09:09:09.279Z,49.89
2022-09-09T09:11:41.548Z,49.87
2022-09-09T09:14:17.422Z,50.48
2022-09-09T09:16:53.785Z,50.38
2022-09-09T09:19:23.739Z,49.96
2022-09-09T09:22:06.208Z,50.46
2022-09-09T09:25:11.758Z,50.75
2022-09-09T09:27:58.419Z,49.93
2022-09-09T09:30:30.849Z,50.59
2022-09-09T09:33:00.800Z,50.37
2022-09-09T09:35:27.277Z,50.22
2022-09-09T09:40:58.970Z,50.55
2022-09-09T09:43:33.755Z,50.34
2022-09-09T09:46:16.746Z,50.09
2022-09-09T09:48:43.981Z,49.73
2022-09-09T09:51:16.518Z,50.08
2022-09-09T09:53:43.591Z,49.93
2022-09-09T09:56:13.038Z,50.12
2022-09-09T09:58:45.450Z,50.08
2022-09-09T10:01:32.344Z,50.36
2022-09-09T10:04:01.528Z,49.74
2022-09-09T10:06:34.034Z,49.86
2022-09-09T10:09:02.673Z,49.87
2022-09-09T10:11:46.896Z,50.32
2022-09-09T10:15:01.287Z,50.22
2022-09-09T10:18:10.298Z,49.73
2022-09-09T10:21:10.007Z,50.12
2022-09-09T10:23:58.374Z,49.63
2022-09-09T10:26:37.142Z,50.14
2022-09-09T10:29:17.375Z,50.18
2022-09-09T10:32:17.856Z,49.99
2022-09-09T10:35:05.826Z,49.46
2022-09-09T10:37:50.935Z,49.94
2022-09-09T10:40:45.475Z,49.61
2022-09-09T10:43:29.765Z,49.42
2022-09-09T10:46:36.958Z,49.42
2022-09-09T10:49:22.566Z,49.33
2022-09-09T10:51:57.450Z,49.75
2022-09-09T10:54:38.934Z,49.43
2022-09-09T10:57:14.794Z,49.27
2022-09-09T10:59:44.400Z,49.69
2022-09-09T11:02:11.079Z,49.10
2022-09-09T11:04:46.753Z,49.35
2022-09-09T11:07:15.682Z,49.89
2022-09-09T11:09:56.642Z,49.38
2022-09-09T11:12:24.979Z,49.51
2022-09-09T11:15:07.058Z,49.43
2022-09-09T11:17:50.268Z,49.47
2022-09-09T11:20:16.931Z,49.27
2022-09-09T11:22:47.082Z,49.77
2022-09-09T11:25:27.894Z,50.17
2022-09-09T11:28:16.206Z,50.20
2022-09-09T11:30:57.724Z,49.72
2022-09-09T11:33:58.579Z,49.93
2022-09-09T11:36:40.538Z,49.95
2022-09-09T11:39:26.328Z,49.83
2022-09-09T11:41:52.774Z,49.54
2022-09-09T11:44:31.430Z,49.99
2022-09-09T11:46:57.942Z,49.60
2022-09-09T11:49:31.670Z,50.41
2022-09-09T11:51:58.635Z,50.00
2022-09-09T11:54:45.906Z,50.11
2022-09-09T11:57:26.895Z,50.18
2022-09-09T11:59:53.797Z,49.84
2022-09-09T12:02:26.915Z,50.16
2022-09-09T12:05:22.131Z,50.32
2022-09-09T12:07:57.338Z,49.99
2022-09-09T12:10:30.497Z,50.26
2022-09-09T12:13:10.519Z,50.24
2022-09-09T12:15:48.828Z,50.25
2022-09-09T12:18:46.768Z,50.49
2022-09-09T12:21:38.610Z,50.42
2022-09-09T12:24:11.592Z,50.36
2022-09-09T12:26:54.839Z,50.20
2022-09-09T12:30:00.826Z,50.55
2022-09-09T12:32:29.916Z,50.07
2022-09-09T12:35:02.189Z,50.00
2022-09-09T12:37:31.878Z,50.21
2022-09-09T12:40:03.245Z,50.27
2022-09-09T12:42:29.971Z,50.11
2022-09-09T12:45:02.101Z,50.37
2022-09-09T12:47:52.240Z,50.18
2022-09-09T12:50:23.185Z,50.21
2022-09-09T12:52:54.323Z,50.11
2022-09-09T12:55:26.118Z,50.04
2022-09-09T12:57:53.309Z,50.05
2022-09-09T13:00:24.979Z,50.40
2022-09-09T13:02:53.586Z,49.99
2022-09-09T13:05:40.142Z,50.37
2022-09-09T13:08:12.941Z,50.27
2022-09-09T13:10:58.756Z,50.47
2022-09-09T13:13:36.273Z,50.54
2022-09-09T13:16:05.673Z,50.11
2022-09-09T13:18:35.711Z,50.26
2022-09-09T13:21:02.795Z,50.26
2022-09-09T13:23:32.109Z,50.28
2022-09-09T13:26:01.194Z,49.85
2022-09-09T13:28:34.309Z,50.25
2022-09-09T13:31:04.091Z,50.26
2022-09-09T13:33:38.110Z,50.44
2022-09-09T13:36:10.250Z,50.59
2022-09-09T13:38:54.283Z,50.35
2022-09-09T13:41:24.586Z,50.33
2022-09-09T13:43:52.947Z,50.49
2022-09-09T13:46:41.246Z,50.92
2022-09-09T13:49:10.430Z,50.65
2022-09-09T13:51:43.350Z,50.83
2022-09-09T13:54:11.691Z,50.21
2022-09-09T13:56:40.179Z,50.31
2022-09-09T13:59:11.929Z,50.11
2022-09-09T14:01:38.764Z,50.29
2022-09-09T14:04:07.445Z,50.29
2022-09-09T14:06:38.258Z,50.52
2022-09-09T14:09:09.408Z,50.37
2022-09-09T14:11:35.942Z,50.49
2022-09-09T14:14:02.562Z,50.45
2022-09-09T14:16:30.267Z,50.38
2022-09-09T14:19:00.206Z,50.64
2022-09-09T14:21:27.371Z,50.59
2022-09-09T14:23:54.313Z,50.34
2022-09-09T14:26:24.506Z,50.81
2022-09-09T14:28:55.269Z,50.46
2022-09-09T14:31:23.325Z,50.41
2022-09-09T14:33:49.866Z,50.54
2022-09-09T14:36:16.345Z,50.47
2022-09-09T14:38:43.765Z,50.33
2022-09-09T14:41:12.129Z,50.36
2022-09-09T14:43:41.731Z,50.65
2022-09-09T14:46:10.733Z,50.61
2022-09-09T14:48:37.649Z,50.32
2022-09-09T14:51:08.202Z,50.61
2022-09-09T14:53:34.829Z,50.07
2022-09-09T14:56:07.000Z,50.19
2022-09-09T14:58:33.684Z,50.01
2022-09-09T15:01:05.191Z,50.55
2022-09-09T15:03:31.739Z,50.15
2022-09-09T15:05:59.297Z,50.43
2022-09-09T15:08:27.030Z,50.49
2022-09-09T15:11:01.531Z,50.71
2022-09-09T15:13:28.136Z,50.02
2022-09-09T15:15:55.262Z,50.38
2022-09-09T15:18:22.669Z,50.34
2022-09-09T15:20:49.180Z,50.29
2022-09-09T15:23:16.289Z,50.65
2022-09-09T15:25:56.777Z,50.93
2022-09-09T15:28:23.710Z,50.53
2022-09-09T15:30:53.076Z,50.62
2022-09-09T15:33:21.700Z,50.78
2022-09-09T15:35:48.562Z,50.64
2022-09-09T15:38:16.034Z,50.70
2022-09-09T15:40:42.827Z,50.25
2022-09-09T15:43:11.640Z,50.93
2022-09-09T15:45:38.447Z,50.72
2022-09-09T15:48:05.589Z,50.74
2022-09-09T15:50:33.432Z,50.71
2022-09-09T15:53:00.977Z,50.81
2022-09-09T15:55:27.506Z,50.78
2022-09-09T15:57:54.099Z,50.29
2022-09-09T16:00:21.665Z,50.49
2022-09-09T16:02:48.618Z,50.10
2022-09-09T16:05:15.213Z,50.26
2022-09-09T16:07:43.405Z,50.04
2022-09-09T16:10:11.740Z,49.97
2022-09-09T16:12:38.543Z,49.86
2022-09-09T16:15:05.448Z,50.10
2022-09-09T16:17:38.250Z,50.32
2022-09-09T16:20:07.844Z,50.17
2022-09-09T16:22:34.319Z,50.32
2022-09-09T16:25:00.792Z,49.98
2022-09-09T16:27:27.246Z,50.09
2022-09-09T16:29:54.780Z,49.91
2022-09-09T16:32:21.260Z,50.10
2022-09-09T16:34:47.708Z,50.30
2022-09-09T16:37:14.231Z,50.21
2022-09-09T16:39:40.776Z,50.64
2022-09-09T16:42:07.383Z,50.56
2022-09-09T16:44:34.275Z,50.17
2022-09-09T16:47:01.412Z,50.56
2022-09-09T16:49:29.438Z,50.67
2022-09-09T16:51:59.626Z,50.64
2022-09-09T16:54:27.936Z,50.42
2022-09-09T16:56:54.560Z,50.70
2022-09-09T16:59:22.798Z,50.61
2022-09-09T17:01:51.873Z,50.78
2022-09-09T17:04:25.127Z,50.92
2022-09-09T17:06:53.618Z,50.92
2022-09-09T17:09:21.412Z,50.69
2022-09-09T17:11:49.175Z,51.04
2022-09-09T17:14:18.612Z,50.90
2022-09-09T17:16:45.774Z,51.13
2022-09-09T17:19:13.567Z,50.95
2022-09-09T17:22:00.114Z,50.97
2022-09-09T17:24:30.509Z,50.95
2022-09-09T17:26:58.267Z,50.85
2022-09-09T17:29:25.673Z,50.88
2022-09-09T17:31:52.209Z,50.85
2022-09-09T17:34:18.702Z,50.69
2022-09-09T17:36:45.215Z,51.16
2022-09-09T17:39:11.695Z,50.90
2022-09-09T17:41:39.672Z,51.07
2022-09-09T17:46:41.910Z,51.11
2022-09-09T17:49:13.556Z,50.81
2022-09-09T17:51:42.578Z,50.98
2022-09-09T17:54:13.099Z,51.14
2022-09-09T17:56:40.240Z,50.90
2022-09-09T17:59:08.897Z,50.98
2022-09-09T18:01:39.489Z,51.06
2022-09-09T18:04:08.979Z,50.98
2022-09-09T18:06:39.030Z,51.02
2022-09-09T18:09:10.312Z,50.99
2022-09-09T18:11:42.605Z,51.10
2022-09-09T18:14:11.287Z,51.12
2022-09-09T18:16:38.430Z,51.05
2022-09-09T18:19:06.949Z,51.10
2022-09-09T18:21:35.355Z,51.15
2022-09-09T18:24:04.173Z,51.33
2022-09-09T18:26:33.649Z,50.98
2022-09-09T18:29:04.089Z,51.00
2022-09-09T18:31:31.904Z,51.31
2022-09-09T18:34:02.875Z,51.21
2022-09-09T18:36:34.081Z,51.29
2022-09-09T18:39:02.987Z,51.09
2022-09-09T18:41:38.418Z,51.50
2022-09-09T18:44:09.832Z,51.28
2022-09-09T18:46:37.213Z,51.45
2022-09-09T18:49:05.842Z,50.90
2022-09-09T18:51:35.239Z,50.96
2022-09-09T18:54:05.147Z,51.07
2022-09-09T18:56:32.238Z,51.14
2022-09-09T18:59:01.006Z,51.53
2022-09-09T19:01:29.399Z,51.40
2022-09-09T19:03:56.984Z,51.23
2022-09-09T19:06:28.438Z,51.66
2022-09-09T19:09:03.645Z,51.27
2022-09-09T19:11:32.814Z,51.02
2022-09-09T19:14:03.716Z,51.58
2022-09-09T19:16:32.338Z,51.18
2022-09-09T19:19:08.225Z,51.60
2022-09-09T19:21:38.210Z,51.74
2022-09-09T19:24:11.517Z,51.68
2022-09-09T19:26:43.345Z,51.60
2022-09-09T19:29:15.203Z,51.56
2022-09-09T19:31:55.161Z,51.60
2022-09-09T19:34:29.756Z,51.55
2022-09-09T19:36:56.321Z,51.42
2022-09-09T19:39:22.815Z,51.70
2022-09-09T19:41:49.766Z,51.69
2022-09-09T19:44:17.001Z,51.61
2022-09-09T19:46:45.873Z,51.55
2022-09-09T19:49:12.509Z,51.64
2022-09-09T19:51:38.986Z,51.52
2022-09-09T19:54:09.153Z,51.72
2022-09-09T19:56:37.792Z,51.57
2022-09-09T19:59:06.364Z,51.70
2022-09-09T20:01:40.034Z,51.35
2022-09-09T20:04:08.141Z,51.55
2022-09-09T20:06:37.388Z,51.57
2022-09-09T20:09:05.926Z,51.35
2022-09-09T20:11:33.344Z,51.46
2022-09-09T20:13:59.876Z,51.43
2022-09-09T20:16:29.089Z,51.60
2022-09-09T20:18:58.314Z,51.28
2022-09-09T20:21:27.374Z,51.44
2022-09-09T20:23:55.757Z,51.52
2022-09-09T20:26:26.182Z,51.49
2022-09-09T20:28:54.431Z,51.36
2022-09-09T20:31:26.736Z,51.85
2022-09-09T20:33:54.967Z,51.52
2022-09-09T20:36:29.299Z,51.73
2022-09-09T20:38:58.663Z,51.37
2022-09-09T20:41:28.466Z,51.52
2022-09-09T20:44:06.802Z,51.43
2022-09-09T20:46:38.275Z,51.63
2022-09-09T20:49:06.835Z,51.27
2022-09-09T20:51:35.106Z,51.52
2022-09-09T20:54:30.223Z,51.52
2022-09-09T20:56:57.265Z,51.35
2022-09-09T20:59:25.860Z,51.53
2022-09-09T21:01:53.108Z,51.56
2022-09-09T21:04:21.195Z,51.59
2022-09-09T21:06:50.161Z,51.25
2022-09-09T21:09:17.698Z,51.17
2022-09-09T21:11:44.151Z,51.39
2022-09-09T21:14:10.924Z,51.47
2022-09-09T21:16:37.404Z,51.39
2022-09-09T21:19:04.576Z,51.03
2022-09-09T21:21:31.167Z,51.42
2022-09-09T21:24:00.362Z,51.16
2022-09-09T21:26:27.018Z,51.45
2022-09-09T21:28:54.927Z,51.26
2022-09-09T21:31:27.464Z,51.30
2022-09-09T21:33:55.972Z,51.07
2022-09-09T21:36:23.338Z,51.48
2022-09-09T21:38:50.482Z,51.18
2022-09-09T21:41:17.598Z,51.15
2022-09-09T21:43:46.673Z,51.10
2022-09-09T21:46:16.087Z,51.41
2022-09-09T21:48:42.674Z,51.24
2022-09-09T21:51:12.219Z,51.40
2022-09-09T21:53:39.639Z,51.05
2022-09-09T21:56:09.643Z,51.11
2022-09-09T21:58:36.520Z,51.01
2022-09-09T22:01:09.894Z,51.42
2022-09-09T22:03:38.950Z,51.07
2022-09-09T22:06:09.883Z,51.41
2022-09-09T22:08:36.969Z,51.19
2022-09-09T22:11:13.768Z,51.33
2022-09-09T22:13:40.703Z,51.15
2022-09-09T22:16:12.398Z,51.50
2022-09-09T22:18:39.892Z,51.19
2022-09-09T22:21:15.349Z,51.31
2022-09-09T22:23:42.534Z,51.21
2022-09-09T22:26:09.861Z,51.08
2022-09-09T22:28:38.442Z,51.43
2022-09-09T22:31:05.964Z,51.16
2022-09-09T22:33:32.626Z,51.34
2022-09-09T22:35:59.287Z,51.17
2022-09-09T22:38:26.976Z,51.10
2022-09-09T22:40:53.528Z,51.51
2022-09-09T22:43:21.683Z,51.15
2022-09-09T22:45:48.652Z,51.07
2022-09-09T22:48:15.561Z,51.42
2022-09-09T22:50:42.740Z,51.30
2022-09-09T22:53:13.519Z,51.24
2022-09-09T22:55:40.476Z,51.13
2022-09-09T22:58:07.030Z,51.49
2022-09-09T23:00:33.634Z,51.53
2022-09-09T23:03:00.185Z,51.46
2022-09-09T23:05:27.613Z,51.53
2022-09-09T23:07:56.094Z,51.35
2022-09-09T23:10:22.645Z,51.24
2022-09-09T23:12:49.675Z,51.16
2022-09-09T23:15:17.306Z,51.30
2022-09-09T23:17:43.834Z,51.15
2022-09-09T23:20:10.613Z,51.15
2022-09-09T23:22:39.116Z,51.29
2022-09-09T23:25:06.434Z,51.53
2022-09-09T23:27:33.549Z,51.48
2022-09-09T23:30:00.571Z,51.80
2022-09-09T23:32:27.075Z,51.49
2022-09-09T23:34:53.655Z,51.40
2022-09-09T23:37:20.195Z,51.82
2022-09-09T23:39:47.807Z,51.50
2022-09-09T23:42:14.411Z,51.60
2022-09-09T23:44:40.970Z,51.77
2022-09-09T23:47:09.339Z,52.22
2022-09-09T23:49:39.179Z,51.98
2022-09-09T23:52:06.686Z,51.65
2022-09-09T23:54:34.741Z,51.58
2022-09-09T23:57:03.048Z,51.94
2022-09-09T23:59:31.008Z,51.61
